sensor_id;sensor_type;location;lat;lon;timestamp;P1;durP1;ratioP1;P2;durP2;ratioP2
36449;SDS011;22475;51.390;7.180;2023-07-13T00:00:06;3.58;;;1.00;;
36449;SDS011;22475;51.390;7.180;2023-07-13T00:02:35;1.15;;;0.80;;
36449;SDS011;22475;51.390;7.180;2023-07-13T00:05:02;1.00;;;0.55;;
36449;SDS011;22475;51.390;7.180;2023-07-13T00:07:29;3.40;;;0.73;;
36449;SDS011;22475;51.390;7.180;2023-07-13T00:09:56;2.95;;;0.63;;
36449;SDS011;22475;51.390;7.180;2023-07-13T00:12:26;0.55;;;0.52;;
36449;SDS011;22475;51.390;7.180;2023-07-13T00:14:55;0.68;;;0.68;;
36449;SDS011;22475;51.390;7.180;2023-07-13T00:17:22;4.22;;;0.73;;
36449;SDS011;22475;51.390;7.180;2023-07-13T00:19:49;1.92;;;0.52;;
36449;SDS011;22475;51.390;7.180;2023-07-13T00:22:16;2.17;;;0.73;;
36449;SDS011;22475;51.390;7.180;2023-07-13T00:24:44;1.00;;;0.90;;
36449;SDS011;22475;51.390;7.180;2023-07-13T00:27:11;1.20;;;1.05;;
36449;SDS011;22475;51.390;7.180;2023-07-13T00:29:39;2.88;;;0.38;;
36449;SDS011;22475;51.390;7.180;2023-07-13T00:32:07;2.25;;;0.52;;
36449;SDS011;22475;51.390;7.180;2023-07-13T00:34:36;1.20;;;0.60;;
36449;SDS011;22475;51.390;7.180;2023-07-13T00:37:03;1.05;;;0.80;;
36449;SDS011;22475;51.390;7.180;2023-07-13T00:39:31;0.93;;;0.60;;
36449;SDS011;22475;51.390;7.180;2023-07-13T00:41:58;4.07;;;0.90;;
36449;SDS011;22475;51.390;7.180;2023-07-13T00:44:25;2.33;;;0.60;;
36449;SDS011;22475;51.390;7.180;2023-07-13T00:46:54;0.60;;;0.60;;
36449;SDS011;22475;51.390;7.180;2023-07-13T00:49:23;2.33;;;0.70;;
36449;SDS011;22475;51.390;7.180;2023-07-13T00:51:53;0.75;;;0.55;;
36449;SDS011;22475;51.390;7.180;2023-07-13T00:54:24;3.90;;;0.80;;
36449;SDS011;22475;51.390;7.180;2023-07-13T00:56:54;1.92;;;0.80;;
36449;SDS011;22475;51.390;7.180;2023-07-13T00:59:24;1.92;;;0.70;;
36449;SDS011;22475;51.390;7.180;2023-07-13T01:01:52;2.42;;;1.13;;
36449;SDS011;22475;51.390;7.180;2023-07-13T01:04:23;2.22;;;1.27;;
36449;SDS011;22475;51.390;7.180;2023-07-13T01:06:50;1.10;;;0.52;;
36449;SDS011;22475;51.390;7.180;2023-07-13T01:09:17;7.15;;;1.00;;
36449;SDS011;22475;51.390;7.180;2023-07-13T01:11:43;1.50;;;0.75;;
36449;SDS011;22475;51.390;7.180;2023-07-13T01:14:11;2.50;;;0.82;;
36449;SDS011;22475;51.390;7.180;2023-07-13T01:16:38;1.73;;;0.80;;
36449;SDS011;22475;51.390;7.180;2023-07-13T01:19:11;1.80;;;0.70;;
36449;SDS011;22475;51.390;7.180;2023-07-13T01:21:49;2.90;;;0.80;;
36449;SDS011;22475;51.390;7.180;2023-07-13T01:24:17;1.77;;;0.88;;
36449;SDS011;22475;51.390;7.180;2023-07-13T01:26:43;2.38;;;0.52;;
36449;SDS011;22475;51.390;7.180;2023-07-13T01:29:10;2.50;;;0.80;;
36449;SDS011;22475;51.390;7.180;2023-07-13T01:31:37;1.33;;;0.70;;
36449;SDS011;22475;51.390;7.180;2023-07-13T01:34:04;1.48;;;0.88;;
36449;SDS011;22475;51.390;7.180;2023-07-13T01:36:31;5.15;;;0.85;;
36449;SDS011;22475;51.390;7.180;2023-07-13T01:38:59;2.45;;;0.80;;
36449;SDS011;22475;51.390;7.180;2023-07-13T01:41:26;7.70;;;0.68;;
36449;SDS011;22475;51.390;7.180;2023-07-13T01:43:53;1.17;;;0.77;;
36449;SDS011;22475;51.390;7.180;2023-07-13T01:46:19;4.30;;;1.20;;
36449;SDS011;22475;51.390;7.180;2023-07-13T01:48:46;0.85;;;0.70;;
36449;SDS011;22475;51.390;7.180;2023-07-13T01:51:13;3.88;;;0.40;;
36449;SDS011;22475;51.390;7.180;2023-07-13T01:53:40;0.93;;;0.70;;
36449;SDS011;22475;51.390;7.180;2023-07-13T01:56:08;2.53;;;0.73;;
36449;SDS011;22475;51.390;7.180;2023-07-13T01:58:34;1.08;;;0.70;;
36449;SDS011;22475;51.390;7.180;2023-07-13T02:01:01;3.38;;;0.55;;
36449;SDS011;22475;51.390;7.180;2023-07-13T02:03:28;2.70;;;0.30;;
36449;SDS011;22475;51.390;7.180;2023-07-13T02:05:55;0.80;;;0.60;;
36449;SDS011;22475;51.390;7.180;2023-07-13T02:08:22;4.32;;;0.70;;
36449;SDS011;22475;51.390;7.180;2023-07-13T02:10:48;1.08;;;0.63;;
36449;SDS011;22475;51.390;7.180;2023-07-13T02:13:16;2.53;;;0.60;;
36449;SDS011;22475;51.390;7.180;2023-07-13T02:15:43;1.40;;;0.70;;
36449;SDS011;22475;51.390;7.180;2023-07-13T02:18:10;7.60;;;1.20;;
36449;SDS011;22475;51.390;7.180;2023-07-13T02:20:42;1.35;;;0.60;;
36449;SDS011;22475;51.390;7.180;2023-07-13T02:23:08;3.55;;;1.35;;
36449;SDS011;22475;51.390;7.180;2023-07-13T02:25:35;4.13;;;0.77;;
36449;SDS011;22475;51.390;7.180;2023-07-13T02:28:02;1.17;;;0.70;;
36449;SDS011;22475;51.390;7.180;2023-07-13T02:30:30;3.85;;;0.52;;
36449;SDS011;22475;51.390;7.180;2023-07-13T02:32:57;4.20;;;0.93;;
36449;SDS011;22475;51.390;7.180;2023-07-13T02:35:24;1.75;;;0.57;;
36449;SDS011;22475;51.390;7.180;2023-07-13T02:37:51;3.00;;;0.73;;
36449;SDS011;22475;51.390;7.180;2023-07-13T02:40:17;3.03;;;0.60;;
36449;SDS011;22475;51.390;7.180;2023-07-13T02:42:44;3.63;;;0.63;;
36449;SDS011;22475;51.390;7.180;2023-07-13T02:45:11;1.17;;;0.63;;
36449;SDS011;22475;51.390;7.180;2023-07-13T02:47:40;1.65;;;0.73;;
36449;SDS011;22475;51.390;7.180;2023-07-13T02:50:08;3.92;;;1.02;;
36449;SDS011;22475;51.390;7.180;2023-07-13T02:52:35;1.83;;;0.57;;
36449;SDS011;22475;51.390;7.180;2023-07-13T02:55:02;2.85;;;1.10;;
36449;SDS011;22475;51.390;7.180;2023-07-13T02:57:28;4.47;;;1.10;;
36449;SDS011;22475;51.390;7.180;2023-07-13T02:59:57;2.20;;;0.65;;
36449;SDS011;22475;51.390;7.180;2023-07-13T03:02:24;1.48;;;1.13;;
36449;SDS011;22475;51.390;7.180;2023-07-13T03:04:54;0.80;;;0.80;;
36449;SDS011;22475;51.390;7.180;2023-07-13T03:07:21;9.93;;;0.88;;
36449;SDS011;22475;51.390;7.180;2023-07-13T03:09:47;3.00;;;0.60;;
36449;SDS011;22475;51.390;7.180;2023-07-13T03:12:14;2.90;;;0.63;;
36449;SDS011;22475;51.390;7.180;2023-07-13T03:14:41;1.33;;;0.57;;
36449;SDS011;22475;51.390;7.180;2023-07-13T03:17:08;2.53;;;0.50;;
36449;SDS011;22475;51.390;7.180;2023-07-13T03:19:34;5.85;;;0.93;;
36449;SDS011;22475;51.390;7.180;2023-07-13T03:22:03;5.88;;;0.82;;
36449;SDS011;22475;51.390;7.180;2023-07-13T03:24:30;3.03;;;0.77;;
36449;SDS011;22475;51.390;7.180;2023-07-13T03:26:58;3.20;;;1.02;;
36449;SDS011;22475;51.390;7.180;2023-07-13T03:29:27;6.43;;;1.23;;
36449;SDS011;22475;51.390;7.180;2023-07-13T03:31:53;4.10;;;0.77;;
36449;SDS011;22475;51.390;7.180;2023-07-13T03:34:20;1.42;;;0.75;;
36449;SDS011;22475;51.390;7.180;2023-07-13T03:36:47;2.10;;;0.65;;
36449;SDS011;22475;51.390;7.180;2023-07-13T03:39:15;9.93;;;1.10;;
36449;SDS011;22475;51.390;7.180;2023-07-13T03:41:42;3.67;;;0.95;;
36449;SDS011;22475;51.390;7.180;2023-07-13T03:44:08;2.15;;;0.70;;
36449;SDS011;22475;51.390;7.180;2023-07-13T03:46:35;1.55;;;0.50;;
36449;SDS011;22475;51.390;7.180;2023-07-13T03:49:03;2.13;;;1.00;;
36449;SDS011;22475;51.390;7.180;2023-07-13T03:51:30;3.58;;;0.75;;
36449;SDS011;22475;51.390;7.180;2023-07-13T03:53:57;3.15;;;0.65;;
36449;SDS011;22475;51.390;7.180;2023-07-13T03:56:25;2.38;;;0.65;;
36449;SDS011;22475;51.390;7.180;2023-07-13T03:58:52;3.30;;;0.60;;
36449;SDS011;22475;51.390;7.180;2023-07-13T04:01:20;0.57;;;0.50;;
36449;SDS011;22475;51.390;7.180;2023-07-13T04:03:48;5.03;;;1.63;;
36449;SDS011;22475;51.390;7.180;2023-07-13T04:06:16;5.38;;;0.95;;
36449;SDS011;22475;51.390;7.180;2023-07-13T04:08:46;5.88;;;1.20;;
36449;SDS011;22475;51.390;7.180;2023-07-13T04:11:15;2.20;;;0.82;;
36449;SDS011;22475;51.390;7.180;2023-07-13T04:13:43;6.47;;;1.10;;
36449;SDS011;22475;51.390;7.180;2023-07-13T04:16:10;3.33;;;1.25;;
36449;SDS011;22475;51.390;7.180;2023-07-13T04:18:37;2.33;;;0.90;;
36449;SDS011;22475;51.390;7.180;2023-07-13T04:21:04;2.65;;;0.65;;
36449;SDS011;22475;51.390;7.180;2023-07-13T04:23:30;1.27;;;0.40;;
36449;SDS011;22475;51.390;7.180;2023-07-13T04:25:57;3.53;;;0.70;;
36449;SDS011;22475;51.390;7.180;2023-07-13T04:28:24;3.80;;;0.88;;
36449;SDS011;22475;51.390;7.180;2023-07-13T04:30:53;4.03;;;0.75;;
36449;SDS011;22475;51.390;7.180;2023-07-13T04:33:20;2.35;;;0.70;;
36449;SDS011;22475;51.390;7.180;2023-07-13T04:35:48;6.60;;;1.00;;
36449;SDS011;22475;51.390;7.180;2023-07-13T04:38:15;1.38;;;0.60;;
36449;SDS011;22475;51.390;7.180;2023-07-13T04:40:42;3.08;;;0.75;;
36449;SDS011;22475;51.390;7.180;2023-07-13T04:43:10;3.08;;;1.00;;
36449;SDS011;22475;51.390;7.180;2023-07-13T04:45:37;2.22;;;0.60;;
36449;SDS011;22475;51.390;7.180;2023-07-13T04:48:05;1.08;;;0.60;;
36449;SDS011;22475;51.390;7.180;2023-07-13T04:50:32;1.75;;;0.85;;
36449;SDS011;22475;51.390;7.180;2023-07-13T04:53:02;1.92;;;0.82;;
36449;SDS011;22475;51.390;7.180;2023-07-13T04:55:29;2.50;;;0.93;;
36449;SDS011;22475;51.390;7.180;2023-07-13T04:57:55;0.90;;;0.82;;
36449;SDS011;22475;51.390;7.180;2023-07-13T05:00:23;2.17;;;0.95;;
36449;SDS011;22475;51.390;7.180;2023-07-13T05:02:51;4.13;;;1.02;;
36449;SDS011;22475;51.390;7.180;2023-07-13T05:05:19;1.25;;;0.63;;
36449;SDS011;22475;51.390;7.180;2023-07-13T05:07:46;2.75;;;1.15;;
36449;SDS011;22475;51.390;7.180;2023-07-13T05:10:12;3.25;;;0.80;;
36449;SDS011;22475;51.390;7.180;2023-07-13T05:12:39;4.22;;;0.82;;
36449;SDS011;22475;51.390;7.180;2023-07-13T05:15:06;3.25;;;0.73;;
36449;SDS011;22475;51.390;7.180;2023-07-13T05:17:33;1.80;;;1.48;;
36449;SDS011;22475;51.390;7.180;2023-07-13T05:20:00;2.97;;;1.13;;
36449;SDS011;22475;51.390;7.180;2023-07-13T05:22:28;6.22;;;0.82;;
36449;SDS011;22475;51.390;7.180;2023-07-13T05:24:55;4.38;;;0.90;;
36449;SDS011;22475;51.390;7.180;2023-07-13T05:27:22;4.57;;;0.90;;
36449;SDS011;22475;51.390;7.180;2023-07-13T05:29:49;1.10;;;0.90;;
36449;SDS011;22475;51.390;7.180;2023-07-13T05:32:16;1.48;;;0.70;;
36449;SDS011;22475;51.390;7.180;2023-07-13T05:34:44;3.22;;;0.95;;
36449;SDS011;22475;51.390;7.180;2023-07-13T05:37:11;5.57;;;1.05;;
36449;SDS011;22475;51.390;7.180;2023-07-13T05:39:39;3.20;;;1.20;;
36449;SDS011;22475;51.390;7.180;2023-07-13T05:42:06;6.93;;;1.10;;
36449;SDS011;22475;51.390;7.180;2023-07-13T05:44:32;1.67;;;0.55;;
36449;SDS011;22475;51.390;7.180;2023-07-13T05:46:59;2.05;;;0.98;;
36449;SDS011;22475;51.390;7.180;2023-07-13T05:49:26;1.77;;;0.65;;
36449;SDS011;22475;51.390;7.180;2023-07-13T05:51:55;7.00;;;1.15;;
36449;SDS011;22475;51.390;7.180;2023-07-13T05:54:22;3.65;;;1.02;;
36449;SDS011;22475;51.390;7.180;2023-07-13T05:56:50;5.85;;;0.73;;
36449;SDS011;22475;51.390;7.180;2023-07-13T05:59:17;6.68;;;1.17;;
36449;SDS011;22475;51.390;7.180;2023-07-13T06:01:44;1.95;;;0.80;;
36449;SDS011;22475;51.390;7.180;2023-07-13T06:04:10;5.88;;;1.05;;
36449;SDS011;22475;51.390;7.180;2023-07-13T06:06:37;3.70;;;1.30;;
36449;SDS011;22475;51.390;7.180;2023-07-13T06:09:04;3.78;;;0.90;;
36449;SDS011;22475;51.390;7.180;2023-07-13T06:11:31;4.70;;;1.27;;
36449;SDS011;22475;51.390;7.180;2023-07-13T06:13:59;3.30;;;1.52;;
36449;SDS011;22475;51.390;7.180;2023-07-13T06:16:25;5.88;;;1.42;;
36449;SDS011;22475;51.390;7.180;2023-07-13T06:18:52;3.03;;;0.60;;
36449;SDS011;22475;51.390;7.180;2023-07-13T06:21:19;3.55;;;1.10;;
36449;SDS011;22475;51.390;7.180;2023-07-13T06:23:48;3.40;;;1.45;;
36449;SDS011;22475;51.390;7.180;2023-07-13T06:26:16;2.28;;;1.10;;
36449;SDS011;22475;51.390;7.180;2023-07-13T06:28:44;6.88;;;1.00;;
36449;SDS011;22475;51.390;7.180;2023-07-13T06:31:13;2.67;;;1.27;;
36449;SDS011;22475;51.390;7.180;2023-07-13T06:33:41;2.05;;;0.70;;
36449;SDS011;22475;51.390;7.180;2023-07-13T06:36:08;2.78;;;1.25;;
36449;SDS011;22475;51.390;7.180;2023-07-13T06:38:35;3.42;;;0.90;;
36449;SDS011;22475;51.390;7.180;2023-07-13T06:41:02;4.03;;;1.25;;
36449;SDS011;22475;51.390;7.180;2023-07-13T06:43:28;1.52;;;1.42;;
36449;SDS011;22475;51.390;7.180;2023-07-13T06:45:57;8.82;;;1.40;;
36449;SDS011;22475;51.390;7.180;2023-07-13T06:48:25;4.55;;;1.13;;
36449;SDS011;22475;51.390;7.180;2023-07-13T06:50:51;9.60;;;1.60;;
36449;SDS011;22475;51.390;7.180;2023-07-13T06:53:18;3.00;;;0.93;;
36449;SDS011;22475;51.390;7.180;2023-07-13T06:55:46;8.85;;;2.67;;
36449;SDS011;22475;51.390;7.180;2023-07-13T06:58:14;2.70;;;1.25;;
36449;SDS011;22475;51.390;7.180;2023-07-13T07:00:41;3.53;;;1.23;;
36449;SDS011;22475;51.390;7.180;2023-07-13T07:03:08;6.68;;;1.27;;
36449;SDS011;22475;51.390;7.180;2023-07-13T07:05:36;6.10;;;0.93;;
36449;SDS011;22475;51.390;7.180;2023-07-13T07:08:03;2.47;;;1.15;;
36449;SDS011;22475;51.390;7.180;2023-07-13T07:10:30;4.40;;;1.25;;
36449;SDS011;22475;51.390;7.180;2023-07-13T07:12:57;3.30;;;1.15;;
36449;SDS011;22475;51.390;7.180;2023-07-13T07:15:24;8.73;;;1.30;;
36449;SDS011;22475;51.390;7.180;2023-07-13T07:17:51;3.08;;;1.00;;
36449;SDS011;22475;51.390;7.180;2023-07-13T07:20:17;1.42;;;0.75;;
36449;SDS011;22475;51.390;7.180;2023-07-13T07:22:46;4.60;;;1.13;;
36449;SDS011;22475;51.390;7.180;2023-07-13T07:25:13;6.63;;;1.77;;
36449;SDS011;22475;51.390;7.180;2023-07-13T07:27:40;6.35;;;1.52;;
36449;SDS011;22475;51.390;7.180;2023-07-13T07:30:07;2.58;;;1.27;;
36449;SDS011;22475;51.390;7.180;2023-07-13T07:32:34;9.65;;;1.48;;
36449;SDS011;22475;51.390;7.180;2023-07-13T07:35:01;4.97;;;1.58;;
36449;SDS011;22475;51.390;7.180;2023-07-13T07:37:28;6.80;;;1.35;;
36449;SDS011;22475;51.390;7.180;2023-07-13T07:39:56;3.67;;;0.80;;
36449;SDS011;22475;51.390;7.180;2023-07-13T07:42:24;2.42;;;1.35;;
36449;SDS011;22475;51.390;7.180;2023-07-13T07:44:51;7.43;;;0.90;;
36449;SDS011;22475;51.390;7.180;2023-07-13T07:47:17;2.08;;;1.27;;
36449;SDS011;22475;51.390;7.180;2023-07-13T07:49:44;4.82;;;1.58;;
36449;SDS011;22475;51.390;7.180;2023-07-13T07:52:11;7.65;;;1.33;;
36449;SDS011;22475;51.390;7.180;2023-07-13T07:54:38;5.00;;;1.20;;
36449;SDS011;22475;51.390;7.180;2023-07-13T07:57:06;10.18;;;1.95;;
36449;SDS011;22475;51.390;7.180;2023-07-13T07:59:33;3.28;;;1.05;;
36449;SDS011;22475;51.390;7.180;2023-07-13T08:02:00;2.25;;;1.02;;
36449;SDS011;22475;51.390;7.180;2023-07-13T08:04:27;3.75;;;1.45;;
36449;SDS011;22475;51.390;7.180;2023-07-13T08:06:54;8.38;;;0.95;;
36449;SDS011;22475;51.390;7.180;2023-07-13T08:09:22;5.32;;;0.90;;
36449;SDS011;22475;51.390;7.180;2023-07-13T08:11:49;6.43;;;1.08;;
36449;SDS011;22475;51.390;7.180;2023-07-13T08:14:18;6.85;;;1.65;;
36449;SDS011;22475;51.390;7.180;2023-07-13T08:16:45;2.70;;;1.55;;
36449;SDS011;22475;51.390;7.180;2023-07-13T08:19:12;4.13;;;1.42;;
36449;SDS011;22475;51.390;7.180;2023-07-13T08:21:39;4.78;;;1.70;;
36449;SDS011;22475;51.390;7.180;2023-07-13T08:24:07;5.95;;;2.25;;
36449;SDS011;22475;51.390;7.180;2023-07-13T08:26:34;7.10;;;2.40;;
36449;SDS011;22475;51.390;7.180;2023-07-13T08:29:01;8.65;;;2.08;;
36449;SDS011;22475;51.390;7.180;2023-07-13T08:31:29;13.15;;;1.88;;
36449;SDS011;22475;51.390;7.180;2023-07-13T08:33:56;12.65;;;2.05;;
36449;SDS011;22475;51.390;7.180;2023-07-13T08:36:23;23.42;;;2.72;;
36449;SDS011;22475;51.390;7.180;2023-07-13T08:38:51;19.25;;;3.42;;
36449;SDS011;22475;51.390;7.180;2023-07-13T08:41:17;17.10;;;2.13;;
36449;SDS011;22475;51.390;7.180;2023-07-13T08:43:47;5.20;;;1.50;;
36449;SDS011;22475;51.390;7.180;2023-07-13T08:46:16;18.73;;;1.98;;
36449;SDS011;22475;51.390;7.180;2023-07-13T08:48:48;11.52;;;2.08;;
36449;SDS011;22475;51.390;7.180;2023-07-13T08:51:24;6.38;;;1.77;;
36449;SDS011;22475;51.390;7.180;2023-07-13T08:54:01;5.97;;;1.80;;
36449;SDS011;22475;51.390;7.180;2023-07-13T08:56:29;12.60;;;1.98;;
36449;SDS011;22475;51.390;7.180;2023-07-13T08:58:58;8.43;;;1.67;;
36449;SDS011;22475;51.390;7.180;2023-07-13T09:01:30;7.97;;;1.67;;
36449;SDS011;22475;51.390;7.180;2023-07-13T09:04:05;5.30;;;1.33;;
36449;SDS011;22475;51.390;7.180;2023-07-13T09:06:42;12.73;;;2.33;;
36449;SDS011;22475;51.390;7.180;2023-07-13T09:09:20;4.72;;;1.42;;
36449;SDS011;22475;51.390;7.180;2023-07-13T09:11:55;11.90;;;3.08;;
36449;SDS011;22475;51.390;7.180;2023-07-13T09:14:37;8.13;;;1.40;;
36449;SDS011;22475;51.390;7.180;2023-07-13T09:17:11;3.42;;;1.10;;
36449;SDS011;22475;51.390;7.180;2023-07-13T09:19:43;7.45;;;1.27;;
36449;SDS011;22475;51.390;7.180;2023-07-13T09:22:16;12.35;;;1.75;;
36449;SDS011;22475;51.390;7.180;2023-07-13T09:24:51;6.87;;;1.57;;
36449;SDS011;22475;51.390;7.180;2023-07-13T09:27:24;7.55;;;1.48;;
36449;SDS011;22475;51.390;7.180;2023-07-13T09:29:58;10.63;;;0.82;;
36449;SDS011;22475;51.390;7.180;2023-07-13T09:32:31;4.70;;;1.00;;
36449;SDS011;22475;51.390;7.180;2023-07-13T09:35:00;3.22;;;1.02;;
36449;SDS011;22475;51.390;7.180;2023-07-13T09:37:29;3.53;;;1.50;;
36449;SDS011;22475;51.390;7.180;2023-07-13T09:39:58;7.57;;;1.40;;
36449;SDS011;22475;51.390;7.180;2023-07-13T09:42:29;13.85;;;1.65;;
36449;SDS011;22475;51.390;7.180;2023-07-13T09:44:59;3.08;;;1.08;;
36449;SDS011;22475;51.390;7.180;2023-07-13T09:47:29;4.15;;;1.20;;
36449;SDS011;22475;51.390;7.180;2023-07-13T09:49:58;3.45;;;1.65;;
36449;SDS011;22475;51.390;7.180;2023-07-13T09:52:27;4.93;;;0.97;;
36449;SDS011;22475;51.390;7.180;2023-07-13T09:55:11;4.88;;;1.23;;
36449;SDS011;22475;51.390;7.180;2023-07-13T09:57:50;2.33;;;1.30;;
36449;SDS011;22475;51.390;7.180;2023-07-13T10:00:20;2.67;;;1.23;;
36449;SDS011;22475;51.390;7.180;2023-07-13T10:02:50;5.88;;;1.27;;
36449;SDS011;22475;51.390;7.180;2023-07-13T10:05:26;1.67;;;1.08;;
36449;SDS011;22475;51.390;7.180;2023-07-13T10:07:53;5.25;;;1.38;;
36449;SDS011;22475;51.390;7.180;2023-07-13T10:10:22;2.90;;;1.10;;
36449;SDS011;22475;51.390;7.180;2023-07-13T10:12:49;4.10;;;1.10;;
36449;SDS011;22475;51.390;7.180;2023-07-13T10:15:18;2.63;;;1.55;;
36449;SDS011;22475;51.390;7.180;2023-07-13T10:17:47;1.45;;;0.73;;
36449;SDS011;22475;51.390;7.180;2023-07-13T10:20:15;4.10;;;0.82;;
36449;SDS011;22475;51.390;7.180;2023-07-13T10:22:44;4.45;;;0.98;;
36449;SDS011;22475;51.390;7.180;2023-07-13T10:25:18;5.72;;;1.13;;
36449;SDS011;22475;51.390;7.180;2023-07-13T10:27:47;2.47;;;1.00;;
36449;SDS011;22475;51.390;7.180;2023-07-13T10:32:46;2.47;;;1.50;;
36449;SDS011;22475;51.390;7.180;2023-07-13T10:35:14;3.63;;;1.10;;
36449;SDS011;22475;51.390;7.180;2023-07-13T10:37:45;2.28;;;0.77;;
36449;SDS011;22475;51.390;7.180;2023-07-13T10:40:16;1.02;;;0.93;;
36449;SDS011;22475;51.390;7.180;2023-07-13T10:42:48;0.90;;;0.80;;
36449;SDS011;22475;51.390;7.180;2023-07-13T10:45:19;3.13;;;0.90;;
36449;SDS011;22475;51.390;7.180;2023-07-13T10:47:47;4.60;;;1.10;;
